KONA/ONA METAR and TAF weather

Enter ICAO airport designator
Station Type Date Time Source
KONA METAR 2020/09/27 03:15 UTC NOAA

KONA 270315Z AUTO 28007KT 10SM CLR 23/18 A2950 RMK AO2


Station Type Date Time Source
KONA Decoded METAR 2020/09/27 03:15 UTC NOAA

Winona, Winona Municipal Airport-Max Conrad Field, MN, United States (KONA) 44-05N 091-42W
Sep 26, 2020 - 11:15 PM EDT / 2020.09.27 0315 UTC
Wind: from the W (280 degrees) at 8 MPH (7 KT):0
Visibility: 10 mile(s):0
Sky conditions: clear
Temperature: 73 F (23 C)
Dew Point: 64 F (18 C)
Relative Humidity: 73%
Pressure (altimeter): 29.5 in. Hg (998 hPa)
ob: KONA 270315Z AUTO 28007KT 10SM CLR 23/18 A2950 RMK AO2
cycle: 3

Station Type Date Time Source
KONA TAF UTC NOAA

Error!

Example: see airport list